createdAt,value
2018-01-14T00:00:13.502Z,95645.14
2018-01-14T00:02:41.142Z,95637.39
2018-01-14T00:05:08.554Z,95642.73
2018-01-14T00:07:35.935Z,95649.34
2018-01-14T00:10:03.490Z,95647.31
2018-01-14T00:12:31.040Z,95644.23
2018-01-14T00:14:58.554Z,95653.09
2018-01-14T00:17:26.013Z,95654.13
2018-01-14T00:19:53.415Z,95643.63
2018-01-14T00:22:20.856Z,95651.13
2018-01-14T00:24:48.435Z,95653.99
2018-01-14T00:27:17.475Z,95641.77
2018-01-14T00:29:44.965Z,95639.04
2018-01-14T00:32:12.369Z,95647.53
2018-01-14T00:34:39.718Z,95645.25
2018-01-14T00:37:07.133Z,95645.22
2018-01-14T00:39:34.527Z,95646.57
2018-01-14T00:42:01.874Z,95639.02
2018-01-14T00:44:29.305Z,95648.11
2018-01-14T00:46:56.660Z,95647.89
2018-01-14T00:49:24.078Z,95649.59
2018-01-14T00:51:51.493Z,95644.61
2018-01-14T00:54:18.881Z,95650.63
2018-01-14T00:56:46.463Z,95646.42
2018-01-14T00:59:13.941Z,95651.86
2018-01-14T01:01:41.506Z,95654.36
2018-01-14T01:04:08.917Z,95650.30
2018-01-14T01:06:36.342Z,95654.09
2018-01-14T01:09:03.828Z,95656.02
2018-01-14T01:11:31.177Z,95664.01
2018-01-14T01:13:58.656Z,95656.23
2018-01-14T01:16:26.090Z,95662.11
2018-01-14T01:18:53.570Z,95669.42
2018-01-14T01:21:21.083Z,95662.56
2018-01-14T01:23:48.487Z,95666.93
2018-01-14T01:26:16.081Z,95666.84
2018-01-14T01:28:43.512Z,95667.58
2018-01-14T01:31:10.899Z,95660.22
2018-01-14T01:33:38.361Z,95663.56
2018-01-14T01:36:05.766Z,95655.40
2018-01-14T01:38:33.390Z,95656.11
2018-01-14T01:41:00.746Z,95651.47
2018-01-14T01:43:28.149Z,95648.92
2018-01-14T01:45:55.682Z,95647.33
2018-01-14T01:48:23.174Z,95644.69
2018-01-14T01:50:50.579Z,95640.84
2018-01-14T01:53:17.978Z,95643.38
2018-01-14T01:55:45.437Z,95640.13
2018-01-14T01:58:12.879Z,95635.84
2018-01-14T02:00:40.250Z,95637.68
2018-01-14T02:03:07.663Z,95646.20
2018-01-14T02:05:35.018Z,95642.20
2018-01-14T02:08:02.370Z,95636.97
2018-01-14T02:10:29.922Z,95638.52
2018-01-14T02:12:57.358Z,95639.38
2018-01-14T02:15:24.724Z,95645.17
2018-01-14T02:17:52.208Z,95646.94
2018-01-14T02:20:19.571Z,95647.48
2018-01-14T02:22:46.949Z,95644.84
2018-01-14T02:25:14.399Z,95653.27
2018-01-14T02:27:41.782Z,95638.61
2018-01-14T02:30:09.178Z,95644.49
2018-01-14T02:32:36.665Z,95645.78
2018-01-14T02:35:04.014Z,95642.31
2018-01-14T02:37:31.389Z,95639.06
2018-01-14T02:39:58.867Z,95636.98
2018-01-14T02:42:26.281Z,95641.41
2018-01-14T02:44:53.769Z,95642.91
2018-01-14T02:47:21.154Z,95640.54
2018-01-14T02:49:48.556Z,95637.65
2018-01-14T02:52:15.894Z,95642.77
2018-01-14T02:54:43.384Z,95634.92
2018-01-14T02:57:10.723Z,95629.84
2018-01-14T02:59:38.182Z,95636.66
2018-01-14T03:02:05.630Z,95638.14
2018-01-14T03:04:33.032Z,95639.65
2018-01-14T03:07:00.414Z,95637.40
2018-01-14T03:09:27.771Z,95640.16
2018-01-14T03:11:55.168Z,95642.54
2018-01-14T03:14:22.533Z,95641.34
2018-01-14T03:16:50.266Z,95645.66
2018-01-14T03:19:17.698Z,95646.02
2018-01-14T03:21:45.105Z,95647.17
2018-01-14T03:24:12.477Z,95641.13
2018-01-14T03:26:39.889Z,95643.77
2018-01-14T03:29:07.321Z,95651.03
2018-01-14T03:31:34.726Z,95652.42
2018-01-14T03:34:02.123Z,95653.95
2018-01-14T03:36:29.896Z,95652.16
2018-01-14T03:38:57.279Z,95657.66
2018-01-14T03:41:24.866Z,95655.95
2018-01-14T03:43:52.215Z,95657.63
2018-01-14T03:46:19.543Z,95651.52
2018-01-14T03:48:46.960Z,95654.19
2018-01-14T03:51:14.378Z,95659.16
2018-01-14T03:53:41.739Z,95655.63
2018-01-14T03:56:09.154Z,95649.42
2018-01-14T03:58:36.542Z,95655.28
2018-01-14T04:01:03.923Z,95648.40
2018-01-14T04:03:31.266Z,95654.06
2018-01-14T04:05:58.784Z,95650.07
2018-01-14T04:08:26.130Z,95648.91
2018-01-14T04:10:53.570Z,95644.70
2018-01-14T04:13:20.905Z,95645.50
2018-01-14T04:15:48.242Z,95639.66
2018-01-14T04:18:16.247Z,95645.18
2018-01-14T04:20:43.669Z,95645.28
2018-01-14T04:23:11.026Z,95635.64
2018-01-14T04:25:40.431Z,95640.01
2018-01-14T04:28:07.998Z,95639.78
2018-01-14T04:30:35.354Z,95646.56
2018-01-14T04:33:02.758Z,95643.19
2018-01-14T04:35:30.156Z,95640.97
2018-01-14T04:37:57.761Z,95646.15
2018-01-14T04:40:25.174Z,95649.59
2018-01-14T04:42:52.526Z,95657.14
2018-01-14T04:45:19.871Z,95654.57
2018-01-14T04:47:47.286Z,95656.66
2018-01-14T04:50:14.685Z,95653.02
2018-01-14T04:52:42.162Z,95660.88
2018-01-14T04:55:09.755Z,95664.08
2018-01-14T04:57:37.208Z,95662.38
2018-01-14T05:00:04.580Z,95666.53
2018-01-14T05:02:31.964Z,95664.28
2018-01-14T05:04:59.494Z,95671.99
2018-01-14T05:07:26.913Z,95675.88
2018-01-14T05:09:54.263Z,95676.84
2018-01-14T05:12:21.682Z,95681.22
2018-01-14T05:14:49.038Z,95675.91
2018-01-14T05:17:16.390Z,95670.29
2018-01-14T05:19:43.864Z,95687.42
2018-01-14T05:22:11.293Z,95682.34
2018-01-14T05:24:38.777Z,95690.45
2018-01-14T05:27:06.153Z,95689.73
2018-01-14T05:29:33.558Z,95687.00
2018-01-14T05:32:00.900Z,95692.12
2018-01-14T05:34:28.243Z,95690.03
2018-01-14T05:36:55.667Z,95688.36
2018-01-14T05:39:23.048Z,95691.41
2018-01-14T05:41:50.416Z,95694.05
2018-01-14T05:44:17.837Z,95695.78
2018-01-14T05:46:45.196Z,95704.02
2018-01-14T05:49:12.662Z,95697.16
2018-01-14T05:51:40.053Z,95700.28
2018-01-14T05:54:07.418Z,95702.08
2018-01-14T05:56:34.978Z,95705.88
2018-01-14T05:59:02.360Z,95696.81
2018-01-14T06:01:29.742Z,95704.78
2018-01-14T06:03:57.147Z,95706.88
2018-01-14T06:06:24.495Z,95709.36
2018-01-14T06:08:51.847Z,95721.14
2018-01-14T06:11:19.235Z,95718.20
2018-01-14T06:13:46.755Z,95721.14
2018-01-14T06:16:14.226Z,95722.55
2018-01-14T06:18:41.563Z,95726.23
2018-01-14T06:21:08.943Z,95725.45
2018-01-14T06:23:36.307Z,95734.29
2018-01-14T06:26:03.880Z,95733.47
2018-01-14T06:28:31.301Z,95737.23
2018-01-14T06:30:58.686Z,95735.22
2018-01-14T06:33:26.039Z,95742.05
2018-01-14T06:35:53.505Z,95744.30
2018-01-14T06:38:20.839Z,95753.30
2018-01-14T06:40:48.191Z,95747.73
2018-01-14T06:43:15.612Z,95739.50
2018-01-14T06:45:43.016Z,95757.32
2018-01-14T06:48:10.355Z,95759.25
2018-01-14T06:50:37.824Z,95751.00
2018-01-14T06:53:05.210Z,95762.83
2018-01-14T06:55:32.618Z,95760.23
2018-01-14T06:57:59.988Z,95758.95
2018-01-14T07:00:27.409Z,95762.59
2018-01-14T07:02:54.756Z,95768.05
2018-01-14T07:05:22.214Z,95764.64
2018-01-14T07:07:49.626Z,95769.91
2018-01-14T07:10:17.158Z,95764.38
2018-01-14T07:12:44.538Z,95779.10
2018-01-14T07:15:11.916Z,95781.78
2018-01-14T07:17:39.301Z,95784.42
2018-01-14T07:20:06.708Z,95787.67
2018-01-14T07:22:34.184Z,95788.17
2018-01-14T07:25:01.541Z,95787.21
2018-01-14T07:27:28.988Z,95792.13
2018-01-14T07:29:56.342Z,95790.19
2018-01-14T07:32:23.724Z,95793.03
2018-01-14T07:34:51.103Z,95794.95
2018-01-14T07:37:18.486Z,95789.23
2018-01-14T07:39:45.954Z,95788.14
2018-01-14T07:42:13.315Z,95786.27
2018-01-14T07:44:40.753Z,95789.23
2018-01-14T07:47:08.181Z,95792.02
2018-01-14T07:49:35.576Z,95792.91
2018-01-14T07:52:03.638Z,95793.77
2018-01-14T07:54:31.863Z,95790.78
2018-01-14T07:56:59.244Z,95791.01
2018-01-14T07:59:26.623Z,95784.53
2018-01-14T08:01:54.008Z,95793.06
2018-01-14T08:04:21.391Z,95792.06
2018-01-14T08:06:48.753Z,95793.02
2018-01-14T08:09:16.990Z,95791.86
2018-01-14T08:11:44.644Z,95790.78
2018-01-14T08:14:12.068Z,95788.84
2018-01-14T08:16:39.539Z,95783.38
2018-01-14T08:19:06.988Z,95792.83
2018-01-14T08:21:34.344Z,95787.64
2018-01-14T08:24:02.786Z,95788.61
2018-01-14T08:26:30.149Z,95787.95
2018-01-14T08:28:57.780Z,95785.70
2018-01-14T08:31:25.149Z,95782.25
2018-01-14T08:33:52.534Z,95789.23
2018-01-14T08:36:21.261Z,95795.62
2018-01-14T08:38:48.889Z,95800.70
2018-01-14T08:41:16.233Z,95805.11
2018-01-14T08:43:43.931Z,95805.04
2018-01-14T08:46:11.632Z,95809.53
2018-01-14T08:48:39.081Z,95805.78
2018-01-14T08:51:06.654Z,95813.14
2018-01-14T08:53:34.042Z,95814.46
2018-01-14T08:56:01.414Z,95819.77
2018-01-14T08:58:28.935Z,95818.06
2018-01-14T09:00:56.583Z,95819.73
2018-01-14T09:03:23.937Z,95818.06
2018-01-14T09:05:51.346Z,95819.03
2018-01-14T09:08:18.770Z,95811.82
2018-01-14T09:10:46.309Z,95813.19
2018-01-14T09:13:13.676Z,95804.42
2018-01-14T09:15:41.078Z,95806.48
2018-01-14T09:18:08.451Z,95806.83
2018-01-14T09:20:35.929Z,95801.13
2018-01-14T09:23:03.402Z,95806.63
2018-01-14T09:25:31.083Z,95806.91
2018-01-14T09:27:58.533Z,95807.45
2018-01-14T09:30:25.974Z,95798.25
2018-01-14T09:32:53.562Z,95799.73
2018-01-14T09:35:21.450Z,95796.55
2018-01-14T09:37:48.857Z,95802.95
2018-01-14T09:40:16.417Z,95791.75
2018-01-14T09:42:43.811Z,95798.53
2018-01-14T09:45:11.227Z,95796.52
2018-01-14T09:47:38.726Z,95796.94
2018-01-14T09:50:06.102Z,95791.70
2018-01-14T09:52:33.561Z,95791.31
2018-01-14T09:55:00.954Z,95785.42
2018-01-14T09:57:28.375Z,95778.22
2018-01-14T09:59:55.766Z,95779.00
2018-01-14T10:02:23.177Z,95781.91
2018-01-14T10:04:50.659Z,95781.44
2018-01-14T10:07:18.045Z,95768.06
2018-01-14T10:09:45.534Z,95768.68
2018-01-14T10:12:13.098Z,95776.36
2018-01-14T10:14:40.458Z,95769.34
2018-01-14T10:17:07.846Z,95772.75
2018-01-14T10:19:35.251Z,95772.59
2018-01-14T10:22:02.714Z,95771.31
2018-01-14T10:24:30.157Z,95768.48
2018-01-14T10:26:57.571Z,95761.73
2018-01-14T10:29:25.079Z,95756.47
2018-01-14T10:31:52.493Z,95754.50
2018-01-14T10:34:19.837Z,95761.47
2018-01-14T10:36:47.258Z,95753.11
2018-01-14T10:39:14.712Z,95754.53
2018-01-14T10:41:42.061Z,95746.75
2018-01-14T10:44:10.096Z,95765.43
2018-01-14T10:46:37.462Z,95756.13
2018-01-14T10:49:04.818Z,95751.62
2018-01-14T10:51:32.230Z,95752.86
2018-01-14T10:53:59.583Z,95751.05
2018-01-14T10:56:26.963Z,95748.56
2018-01-14T10:58:54.394Z,95740.66
2018-01-14T11:01:21.885Z,95735.50
2018-01-14T11:03:49.533Z,95726.01
2018-01-14T11:06:16.995Z,95731.52
2018-01-14T11:08:44.468Z,95713.06
2018-01-14T11:11:12.209Z,95722.98
2018-01-14T11:13:40.561Z,95713.64
2018-01-14T11:16:08.160Z,95713.84
2018-01-14T11:18:35.542Z,95722.29
2018-01-14T11:21:02.981Z,95728.14
2018-01-14T11:23:30.733Z,95733.34
2018-01-14T11:25:58.164Z,95740.31
2018-01-14T11:28:25.568Z,95733.18
2018-01-14T11:30:52.977Z,95727.48
2018-01-14T11:33:20.347Z,95729.81
2018-01-14T11:35:47.722Z,95722.64
2018-01-14T11:38:15.146Z,95707.88
2018-01-14T11:40:42.609Z,95713.80
2018-01-14T11:43:10.026Z,95695.45
2018-01-14T11:45:37.403Z,95716.57
2018-01-14T11:48:04.841Z,95710.78
2018-01-14T11:50:32.215Z,95702.22
2018-01-14T11:53:01.263Z,95710.59
2018-01-14T11:55:28.902Z,95705.86
2018-01-14T11:57:56.538Z,95708.11
2018-01-14T12:00:23.943Z,95693.47
2018-01-14T12:02:51.393Z,95705.41
2018-01-14T12:05:18.748Z,95707.05
2018-01-14T12:07:46.145Z,95714.16
2018-01-14T12:10:13.527Z,95720.39
2018-01-14T12:12:40.922Z,95718.33
2018-01-14T12:15:08.258Z,95718.11
2018-01-14T12:17:35.831Z,95710.71
2018-01-14T12:20:03.258Z,95709.52
2018-01-14T12:22:30.643Z,95712.48
2018-01-14T12:24:57.999Z,95706.63
2018-01-14T12:27:25.490Z,95700.08
2018-01-14T12:29:52.885Z,95713.58
2018-01-14T12:32:20.274Z,95712.52
2018-01-14T12:34:47.685Z,95716.25
2018-01-14T12:37:15.182Z,95723.73
2018-01-14T12:39:42.529Z,95719.90
2018-01-14T12:42:09.957Z,95717.48
2018-01-14T12:44:37.294Z,95713.45
2018-01-14T12:47:04.704Z,95714.92
2018-01-14T12:49:32.322Z,95716.66
2018-01-14T12:51:59.679Z,95713.70
2018-01-14T12:54:27.118Z,95714.77
2018-01-14T12:56:54.602Z,95709.23
2018-01-14T12:59:21.970Z,95711.39
2018-01-14T13:01:49.353Z,95705.83
2018-01-14T13:04:16.809Z,95708.30
2018-01-14T13:06:44.187Z,95714.73
2018-01-14T13:09:11.560Z,95717.56
2018-01-14T13:11:39.176Z,95711.91
2018-01-14T13:14:06.596Z,95712.48
2018-01-14T13:16:33.966Z,95724.47
2018-01-14T13:19:01.822Z,95726.44
2018-01-14T13:21:29.168Z,95721.67
2018-01-14T13:23:56.655Z,95730.20
2018-01-14T13:26:24.108Z,95732.29
2018-01-14T13:28:51.485Z,95727.72
2018-01-14T13:31:18.886Z,95736.43
2018-01-14T13:33:46.246Z,95730.39
2018-01-14T13:36:13.600Z,95739.38
2018-01-14T13:38:41.018Z,95742.53
2018-01-14T13:41:08.496Z,95742.80
2018-01-14T13:43:35.870Z,95742.91
2018-01-14T13:46:03.299Z,95745.66
2018-01-14T13:48:30.703Z,95740.75
2018-01-14T13:50:58.160Z,95749.58
2018-01-14T13:53:25.598Z,95749.86
2018-01-14T13:55:53.133Z,95737.45
2018-01-14T13:58:20.541Z,95749.58
2018-01-14T14:00:47.923Z,95733.27
2018-01-14T14:03:15.308Z,95741.63
2018-01-14T14:05:42.698Z,95744.84
2018-01-14T14:08:10.083Z,95740.51
2018-01-14T14:10:37.485Z,95743.27
2018-01-14T14:13:04.899Z,95750.01
2018-01-14T14:15:32.276Z,95748.37
2018-01-14T14:17:59.648Z,95745.78
2018-01-14T14:20:27.088Z,95742.48
2018-01-14T14:22:54.480Z,95745.20
2018-01-14T14:25:21.902Z,95744.66
2018-01-14T14:27:49.345Z,95737.03
2018-01-14T14:30:16.717Z,95738.68
2018-01-14T14:32:44.110Z,95735.50
2018-01-14T14:35:11.458Z,95733.09
2018-01-14T14:37:38.886Z,95720.46
2018-01-14T14:40:06.292Z,95718.80
2018-01-14T14:42:33.740Z,95725.06
2018-01-14T14:45:01.106Z,95721.69
2018-01-14T14:47:28.483Z,95732.85
2018-01-14T14:49:56.225Z,95723.78
2018-01-14T14:52:23.641Z,95727.77
2018-01-14T14:54:50.995Z,95726.48
2018-01-14T14:57:18.466Z,95730.67
2018-01-14T14:59:45.812Z,95716.22
2018-01-14T15:02:13.271Z,95723.85
2018-01-14T15:04:40.631Z,95720.45
2018-01-14T15:07:07.984Z,95713.23
2018-01-14T15:09:35.446Z,95708.77
2018-01-14T15:12:03.106Z,95716.87
2018-01-14T15:14:30.477Z,95702.50
2018-01-14T15:16:57.920Z,95707.00
2018-01-14T15:19:25.407Z,95716.06
2018-01-14T15:21:52.830Z,95720.09
2018-01-14T15:24:20.244Z,95721.03
2018-01-14T15:26:48.315Z,95732.53
2018-01-14T15:29:15.769Z,95727.62
2018-01-14T15:31:43.186Z,95723.85
2018-01-14T15:34:10.562Z,95720.77
2018-01-14T15:36:38.046Z,95727.47
2018-01-14T15:39:05.433Z,95734.94
2018-01-14T15:41:32.893Z,95731.77
2018-01-14T15:44:00.239Z,95730.77
2018-01-14T15:46:27.623Z,95731.50
2018-01-14T15:48:55.026Z,95735.29
2018-01-14T15:51:22.396Z,95739.83
2018-01-14T15:53:49.754Z,95740.61
2018-01-14T15:56:17.143Z,95741.41
2018-01-14T15:58:44.555Z,95746.19
2018-01-14T16:01:11.982Z,95747.16
2018-01-14T16:03:39.350Z,95743.39
2018-01-14T16:06:06.798Z,95737.12
2018-01-14T16:08:34.148Z,95745.77
2018-01-14T16:11:01.554Z,95743.13
2018-01-14T16:13:28.930Z,95746.97
2018-01-14T16:15:56.365Z,95751.81
2018-01-14T16:18:23.726Z,95755.65
2018-01-14T16:20:51.362Z,95754.72
2018-01-14T16:23:18.727Z,95753.17
2018-01-14T16:25:46.096Z,95756.37
2018-01-14T16:28:13.489Z,95746.03
2018-01-14T16:30:40.869Z,95744.75
2018-01-14T16:33:08.453Z,95754.91
2018-01-14T16:35:35.893Z,95756.97
2018-01-14T16:38:03.324Z,95761.69
2018-01-14T16:40:30.744Z,95766.80
2018-01-14T16:42:58.166Z,95774.33
2018-01-14T16:45:25.623Z,95762.81
2018-01-14T16:47:52.968Z,95775.23
2018-01-14T16:50:20.366Z,95763.68
2018-01-14T16:52:47.799Z,95766.54
2018-01-14T16:55:15.518Z,95764.53
2018-01-14T16:57:43.015Z,95759.19
2018-01-14T17:00:10.426Z,95758.96
2018-01-14T17:02:37.864Z,95762.20
2018-01-14T17:05:05.273Z,95769.54
2018-01-14T17:07:32.674Z,95766.86
2018-01-14T17:10:00.849Z,95766.13
2018-01-14T17:12:28.226Z,95767.44
2018-01-14T17:14:55.758Z,95756.02
2018-01-14T17:17:23.526Z,95765.47
2018-01-14T17:19:50.923Z,95772.84
2018-01-14T17:22:18.326Z,95769.92
2018-01-14T17:24:45.931Z,95777.48
2018-01-14T17:27:13.355Z,95778.80
2018-01-14T17:29:40.747Z,95780.39
2018-01-14T17:32:08.361Z,95779.97
2018-01-14T17:34:35.778Z,95767.60
2018-01-14T17:37:03.204Z,95769.69
2018-01-14T17:39:30.804Z,95780.35
2018-01-14T17:41:58.216Z,95780.86
2018-01-14T17:44:25.597Z,95788.26
2018-01-14T17:46:52.929Z,95784.42
2018-01-14T17:49:20.310Z,95789.85
2018-01-14T17:51:47.703Z,95787.53
2018-01-14T17:54:15.070Z,95789.00
2018-01-14T17:56:42.478Z,95789.11
2018-01-14T17:59:09.885Z,95782.76
2018-01-14T18:01:37.343Z,95782.99
2018-01-14T18:04:04.722Z,95787.17
2018-01-14T18:06:32.064Z,95780.58
2018-01-14T18:08:59.458Z,95786.55
2018-01-14T18:11:26.842Z,95781.90
2018-01-14T18:13:54.211Z,95777.25
2018-01-14T18:16:21.565Z,95781.62
2018-01-14T18:18:48.957Z,95781.90
2018-01-14T18:21:16.747Z,95783.34
2018-01-14T18:23:44.152Z,95782.25
2018-01-14T18:26:11.502Z,95786.02
2018-01-14T18:28:38.893Z,95784.27
2018-01-14T18:31:06.319Z,95788.38
2018-01-14T18:33:33.662Z,95797.44
2018-01-14T18:36:01.041Z,95796.39
2018-01-14T18:38:28.441Z,95796.75
2018-01-14T18:40:55.817Z,95793.69
2018-01-14T18:43:23.337Z,95797.56
2018-01-14T18:45:50.751Z,95799.30
2018-01-14T18:48:18.104Z,95788.14
2018-01-14T18:50:45.704Z,95797.64
2018-01-14T18:53:13.086Z,95797.83
2018-01-14T18:55:40.494Z,95804.88
2018-01-14T18:58:07.861Z,95806.74
2018-01-14T19:00:35.211Z,95796.47
2018-01-14T19:03:02.673Z,95793.09
2018-01-14T19:05:30.068Z,95792.48
2018-01-14T19:07:58.035Z,95794.18
2018-01-14T19:10:25.592Z,95806.51
2018-01-14T19:12:52.979Z,95805.47
2018-01-14T19:15:20.348Z,95796.63
2018-01-14T19:17:47.749Z,95798.30
2018-01-14T19:20:15.154Z,95791.67
2018-01-14T19:22:42.532Z,95792.87
2018-01-14T19:25:09.953Z,95781.13
2018-01-14T19:27:37.301Z,95788.69
2018-01-14T19:30:04.668Z,95790.19
2018-01-14T19:32:32.213Z,95790.46
2018-01-14T19:34:59.589Z,95799.06
2018-01-14T19:37:26.988Z,95802.55
2018-01-14T19:39:54.348Z,95801.66
2018-01-14T19:42:21.790Z,95800.27
2018-01-14T19:44:49.148Z,95798.30
2018-01-14T19:47:16.895Z,95800.08
2018-01-14T19:49:44.378Z,95801.97
2018-01-14T19:52:11.867Z,95793.94
2018-01-14T19:54:39.276Z,95794.03
2018-01-14T19:57:06.651Z,95794.41
2018-01-14T19:59:34.081Z,95798.95
2018-01-14T20:02:01.466Z,95801.47
2018-01-14T20:04:28.842Z,95798.92
2018-01-14T20:06:56.281Z,95804.88
2018-01-14T20:09:23.687Z,95810.11
2018-01-14T20:11:51.097Z,95805.85
2018-01-14T20:14:18.739Z,95809.11
2018-01-14T20:16:46.092Z,95816.55
2018-01-14T20:19:13.521Z,95822.74
2018-01-14T20:21:40.958Z,95816.94
2018-01-14T20:24:08.362Z,95819.91
2018-01-14T20:26:35.759Z,95819.41
2018-01-14T20:29:03.168Z,95818.41
2018-01-14T20:31:30.629Z,95819.72
2018-01-14T20:33:57.977Z,95817.73
2018-01-14T20:36:25.440Z,95816.42
2018-01-14T20:38:52.846Z,95817.46
2018-01-14T20:41:20.438Z,95814.08
2018-01-14T20:43:47.796Z,95824.94
2018-01-14T20:46:15.248Z,95829.16
2018-01-14T20:48:42.672Z,95828.31
2018-01-14T20:51:10.066Z,95830.75
2018-01-14T20:53:37.518Z,95836.67
2018-01-14T20:56:04.874Z,95832.30
2018-01-14T20:58:32.342Z,95833.60
2018-01-14T21:00:59.715Z,95839.44
2018-01-14T21:03:27.177Z,95828.34
2018-01-14T21:05:54.522Z,95821.05
2018-01-14T21:08:22.028Z,95814.59
2018-01-14T21:10:49.492Z,95820.20
2018-01-14T21:13:16.871Z,95818.10
2018-01-14T21:15:44.342Z,95823.41
2018-01-14T21:18:11.766Z,95822.77
2018-01-14T21:20:39.133Z,95819.59
2018-01-14T21:23:06.583Z,95817.89
2018-01-14T21:25:34.005Z,95821.68
2018-01-14T21:28:01.430Z,95812.62
2018-01-14T21:30:28.833Z,95814.20
2018-01-14T21:32:56.244Z,95801.87
2018-01-14T21:35:23.742Z,95792.16
2018-01-14T21:37:51.129Z,95795.17
2018-01-14T21:40:18.549Z,95801.30
2018-01-14T21:42:45.916Z,95799.52
2018-01-14T21:45:13.291Z,95798.73
2018-01-14T21:47:40.706Z,95802.34
2018-01-14T21:50:08.176Z,95795.77
2018-01-14T21:52:35.565Z,95795.45
2018-01-14T21:55:03.036Z,95796.69
2018-01-14T21:57:31.274Z,95802.58
2018-01-14T21:59:58.652Z,95802.00
2018-01-14T22:02:26.004Z,95804.39
2018-01-14T22:04:53.399Z,95804.09
2018-01-14T22:07:20.823Z,95801.80
2018-01-14T22:09:48.220Z,95806.57
2018-01-14T22:12:15.603Z,95805.52
2018-01-14T22:14:43.142Z,95800.67
2018-01-14T22:17:10.554Z,95801.33
2018-01-14T22:19:37.939Z,95808.42
2018-01-14T22:22:05.298Z,95808.69
2018-01-14T22:24:32.719Z,95799.63
2018-01-14T22:27:00.081Z,95805.43
2018-01-14T22:29:27.443Z,95806.59
2018-01-14T22:31:54.843Z,95812.11
2018-01-14T22:34:22.194Z,95806.84
2018-01-14T22:36:49.546Z,95810.59
2018-01-14T22:39:16.951Z,95802.73
2018-01-14T22:41:44.366Z,95798.70
2018-01-14T22:44:11.773Z,95797.58
2018-01-14T22:46:39.135Z,95791.56
2018-01-14T22:49:06.526Z,95802.45
2018-01-14T22:51:33.897Z,95804.97
2018-01-14T22:54:01.321Z,95798.50
2018-01-14T22:56:28.763Z,95787.00
2018-01-14T22:58:56.242Z,95785.48
2018-01-14T23:01:23.624Z,95777.97
2018-01-14T23:03:50.965Z,95774.41
2018-01-14T23:06:18.422Z,95763.10
2018-01-14T23:08:45.862Z,95743.11
2018-01-14T23:11:13.448Z,95736.03
2018-01-14T23:13:40.873Z,95753.14
2018-01-14T23:16:08.503Z,95763.52
2018-01-14T23:18:35.905Z,95740.94
2018-01-14T23:21:03.348Z,95759.95
2018-01-14T23:23:30.701Z,95762.72
2018-01-14T23:25:58.335Z,95758.25
2018-01-14T23:28:25.796Z,95753.75
2018-01-14T23:30:53.230Z,95747.69
2018-01-14T23:33:20.884Z,95751.39
2018-01-14T23:35:48.231Z,95750.83
2018-01-14T23:38:15.667Z,95755.66
2018-01-14T23:40:43.081Z,95745.67
2018-01-14T23:43:10.458Z,95754.77
2018-01-14T23:45:37.866Z,95746.52
2018-01-14T23:48:05.274Z,95748.18
2018-01-14T23:50:32.673Z,95744.59
2018-01-14T23:53:00.111Z,95738.84
2018-01-14T23:55:27.497Z,95735.37
2018-01-14T23:57:54.898Z,95729.67
